sensor_id;sensor_type;location;lat;lon;timestamp;P1;durP1;ratioP1;P2;durP2;ratioP2
33824;SDS011;20127;48.962;8.342;2023-07-13T00:02:28;2.63;;;1.75;;
33824;SDS011;20127;48.962;8.342;2023-07-13T00:05:30;4.18;;;1.63;;
33824;SDS011;20127;48.962;8.342;2023-07-13T00:08:32;1.90;;;1.40;;
33824;SDS011;20127;48.962;8.342;2023-07-13T00:11:34;3.85;;;1.63;;
33824;SDS011;20127;48.962;8.342;2023-07-13T00:14:35;5.95;;;1.70;;
33824;SDS011;20127;48.962;8.342;2023-07-13T00:17:39;11.98;;;2.05;;
33824;SDS011;20127;48.962;8.342;2023-07-13T00:20:41;3.60;;;1.90;;
33824;SDS011;20127;48.962;8.342;2023-07-13T00:23:43;6.68;;;2.13;;
33824;SDS011;20127;48.962;8.342;2023-07-13T00:26:44;2.65;;;2.22;;
33824;SDS011;20127;48.962;8.342;2023-07-13T00:29:46;9.35;;;1.85;;
33824;SDS011;20127;48.962;8.342;2023-07-13T00:32:49;3.03;;;1.85;;
33824;SDS011;20127;48.962;8.342;2023-07-13T00:35:51;5.60;;;2.08;;
33824;SDS011;20127;48.962;8.342;2023-07-13T00:38:54;4.45;;;1.75;;
33824;SDS011;20127;48.962;8.342;2023-07-13T00:41:56;4.03;;;1.70;;
33824;SDS011;20127;48.962;8.342;2023-07-13T00:45:02;4.20;;;1.60;;
33824;SDS011;20127;48.962;8.342;2023-07-13T00:48:07;6.25;;;1.63;;
33824;SDS011;20127;48.962;8.342;2023-07-13T00:51:09;4.80;;;2.10;;
33824;SDS011;20127;48.962;8.342;2023-07-13T00:54:13;3.83;;;2.30;;
33824;SDS011;20127;48.962;8.342;2023-07-13T00:57:18;2.63;;;1.83;;
33824;SDS011;20127;48.962;8.342;2023-07-13T01:00:21;7.40;;;1.30;;
33824;SDS011;20127;48.962;8.342;2023-07-13T01:03:25;6.07;;;1.77;;
33824;SDS011;20127;48.962;8.342;2023-07-13T01:06:27;3.13;;;1.80;;
33824;SDS011;20127;48.962;8.342;2023-07-13T01:09:29;2.67;;;2.08;;
33824;SDS011;20127;48.962;8.342;2023-07-13T01:12:31;6.22;;;1.92;;
33824;SDS011;20127;48.962;8.342;2023-07-13T01:15:37;4.97;;;1.63;;
33824;SDS011;20127;48.962;8.342;2023-07-13T01:18:41;3.63;;;2.10;;
33824;SDS011;20127;48.962;8.342;2023-07-13T01:21:44;3.33;;;2.03;;
33824;SDS011;20127;48.962;8.342;2023-07-13T01:24:51;1.85;;;1.63;;
33824;SDS011;20127;48.962;8.342;2023-07-13T01:27:53;8.20;;;1.67;;
33824;SDS011;20127;48.962;8.342;2023-07-13T01:30:56;2.00;;;1.67;;
33824;SDS011;20127;48.962;8.342;2023-07-13T01:33:59;4.32;;;1.92;;
33824;SDS011;20127;48.962;8.342;2023-07-13T01:37:02;4.70;;;2.42;;
33824;SDS011;20127;48.962;8.342;2023-07-13T01:40:04;4.70;;;1.88;;
33824;SDS011;20127;48.962;8.342;2023-07-13T01:43:08;3.97;;;1.83;;
33824;SDS011;20127;48.962;8.342;2023-07-13T01:46:10;1.90;;;1.67;;
33824;SDS011;20127;48.962;8.342;2023-07-13T01:49:11;4.40;;;2.17;;
33824;SDS011;20127;48.962;8.342;2023-07-13T01:52:14;3.88;;;1.98;;
33824;SDS011;20127;48.962;8.342;2023-07-13T01:55:16;6.10;;;2.40;;
33824;SDS011;20127;48.962;8.342;2023-07-13T01:58:18;3.38;;;2.28;;
33824;SDS011;20127;48.962;8.342;2023-07-13T02:01:19;4.05;;;2.22;;
33824;SDS011;20127;48.962;8.342;2023-07-13T02:04:21;4.50;;;2.10;;
33824;SDS011;20127;48.962;8.342;2023-07-13T02:07:24;4.75;;;2.35;;
33824;SDS011;20127;48.962;8.342;2023-07-13T02:10:26;5.53;;;2.38;;
33824;SDS011;20127;48.962;8.342;2023-07-13T02:13:28;2.75;;;1.90;;
33824;SDS011;20127;48.962;8.342;2023-07-13T02:16:30;4.00;;;1.80;;
33824;SDS011;20127;48.962;8.342;2023-07-13T02:19:32;4.20;;;2.33;;
33824;SDS011;20127;48.962;8.342;2023-07-13T02:22:35;3.47;;;2.38;;
33824;SDS011;20127;48.962;8.342;2023-07-13T02:25:37;5.18;;;2.00;;
33824;SDS011;20127;48.962;8.342;2023-07-13T02:28:38;5.18;;;2.55;;
33824;SDS011;20127;48.962;8.342;2023-07-13T02:31:40;3.92;;;2.50;;
33824;SDS011;20127;48.962;8.342;2023-07-13T02:34:42;5.50;;;2.50;;
33824;SDS011;20127;48.962;8.342;2023-07-13T02:37:45;9.38;;;3.00;;
33824;SDS011;20127;48.962;8.342;2023-07-13T02:40:46;3.85;;;2.13;;
33824;SDS011;20127;48.962;8.342;2023-07-13T02:43:48;8.70;;;2.08;;
33824;SDS011;20127;48.962;8.342;2023-07-13T02:46:50;3.72;;;2.28;;
33824;SDS011;20127;48.962;8.342;2023-07-13T02:49:51;3.47;;;2.67;;
33824;SDS011;20127;48.962;8.342;2023-07-13T02:52:54;4.70;;;2.63;;
33824;SDS011;20127;48.962;8.342;2023-07-13T02:55:56;7.43;;;2.60;;
33824;SDS011;20127;48.962;8.342;2023-07-13T02:58:58;5.47;;;2.53;;
33824;SDS011;20127;48.962;8.342;2023-07-13T03:02:00;5.82;;;2.17;;
33824;SDS011;20127;48.962;8.342;2023-07-13T03:05:02;7.28;;;2.35;;
33824;SDS011;20127;48.962;8.342;2023-07-13T03:08:06;4.32;;;2.10;;
33824;SDS011;20127;48.962;8.342;2023-07-13T03:11:08;2.90;;;2.30;;
33824;SDS011;20127;48.962;8.342;2023-07-13T03:14:12;2.70;;;2.30;;
33824;SDS011;20127;48.962;8.342;2023-07-13T03:17:14;3.88;;;2.55;;
33824;SDS011;20127;48.962;8.342;2023-07-13T03:20:16;2.65;;;2.20;;
33824;SDS011;20127;48.962;8.342;2023-07-13T03:23:20;6.07;;;2.33;;
33824;SDS011;20127;48.962;8.342;2023-07-13T03:26:22;2.17;;;1.92;;
33824;SDS011;20127;48.962;8.342;2023-07-13T03:29:24;6.28;;;2.47;;
33824;SDS011;20127;48.962;8.342;2023-07-13T03:32:26;5.13;;;2.22;;
33824;SDS011;20127;48.962;8.342;2023-07-13T03:35:27;2.22;;;2.00;;
33824;SDS011;20127;48.962;8.342;2023-07-13T03:38:30;12.35;;;3.90;;
33824;SDS011;20127;48.962;8.342;2023-07-13T03:41:32;3.95;;;2.70;;
33824;SDS011;20127;48.962;8.342;2023-07-13T03:44:34;5.65;;;3.05;;
33824;SDS011;20127;48.962;8.342;2023-07-13T03:47:36;5.18;;;2.03;;
33824;SDS011;20127;48.962;8.342;2023-07-13T03:50:38;3.22;;;2.65;;
33824;SDS011;20127;48.962;8.342;2023-07-13T03:53:42;4.50;;;2.65;;
33824;SDS011;20127;48.962;8.342;2023-07-13T03:56:44;4.05;;;2.47;;
33824;SDS011;20127;48.962;8.342;2023-07-13T03:59:46;4.55;;;1.77;;
33824;SDS011;20127;48.962;8.342;2023-07-13T04:02:48;4.63;;;2.60;;
33824;SDS011;20127;48.962;8.342;2023-07-13T04:05:50;9.57;;;2.42;;
33824;SDS011;20127;48.962;8.342;2023-07-13T04:08:53;4.22;;;2.30;;
33824;SDS011;20127;48.962;8.342;2023-07-13T04:11:56;4.38;;;2.20;;
33824;SDS011;20127;48.962;8.342;2023-07-13T04:14:58;5.68;;;2.67;;
33824;SDS011;20127;48.962;8.342;2023-07-13T04:18:00;4.28;;;2.28;;
33824;SDS011;20127;48.962;8.342;2023-07-13T04:21:03;4.60;;;2.05;;
33824;SDS011;20127;48.962;8.342;2023-07-13T04:24:06;3.50;;;3.20;;
33824;SDS011;20127;48.962;8.342;2023-07-13T04:27:08;3.90;;;2.78;;
33824;SDS011;20127;48.962;8.342;2023-07-13T04:30:10;3.67;;;2.10;;
33824;SDS011;20127;48.962;8.342;2023-07-13T04:33:12;2.85;;;2.53;;
33824;SDS011;20127;48.962;8.342;2023-07-13T04:36:14;2.35;;;2.00;;
33824;SDS011;20127;48.962;8.342;2023-07-13T04:39:17;3.47;;;2.17;;
33824;SDS011;20127;48.962;8.342;2023-07-13T04:42:19;7.72;;;2.20;;
33824;SDS011;20127;48.962;8.342;2023-07-13T04:45:20;2.40;;;2.03;;
33824;SDS011;20127;48.962;8.342;2023-07-13T04:48:24;4.03;;;2.05;;
33824;SDS011;20127;48.962;8.342;2023-07-13T04:51:25;9.32;;;2.58;;
33824;SDS011;20127;48.962;8.342;2023-07-13T04:54:28;4.45;;;2.72;;
33824;SDS011;20127;48.962;8.342;2023-07-13T04:57:30;2.30;;;2.10;;
33824;SDS011;20127;48.962;8.342;2023-07-13T05:00:32;5.18;;;2.08;;
33824;SDS011;20127;48.962;8.342;2023-07-13T05:03:34;6.80;;;3.58;;
33824;SDS011;20127;48.962;8.342;2023-07-13T05:06:36;8.35;;;2.72;;
33824;SDS011;20127;48.962;8.342;2023-07-13T05:09:39;4.60;;;2.55;;
33824;SDS011;20127;48.962;8.342;2023-07-13T05:12:41;3.28;;;2.28;;
33824;SDS011;20127;48.962;8.342;2023-07-13T05:15:42;4.80;;;1.90;;
33824;SDS011;20127;48.962;8.342;2023-07-13T05:18:44;5.78;;;2.33;;
33824;SDS011;20127;48.962;8.342;2023-07-13T05:21:45;4.72;;;1.92;;
33824;SDS011;20127;48.962;8.342;2023-07-13T05:24:48;8.55;;;2.03;;
33824;SDS011;20127;48.962;8.342;2023-07-13T05:27:50;5.50;;;1.85;;
33824;SDS011;20127;48.962;8.342;2023-07-13T05:30:53;7.05;;;2.13;;
33824;SDS011;20127;48.962;8.342;2023-07-13T05:33:55;4.57;;;2.30;;
33824;SDS011;20127;48.962;8.342;2023-07-13T05:36:56;8.23;;;2.15;;
33824;SDS011;20127;48.962;8.342;2023-07-13T05:39:59;1.98;;;1.65;;
33824;SDS011;20127;48.962;8.342;2023-07-13T05:43:01;5.68;;;2.60;;
33824;SDS011;20127;48.962;8.342;2023-07-13T05:46:03;6.63;;;2.92;;
33824;SDS011;20127;48.962;8.342;2023-07-13T05:49:05;2.70;;;2.05;;
33824;SDS011;20127;48.962;8.342;2023-07-13T05:52:06;6.28;;;1.42;;
33824;SDS011;20127;48.962;8.342;2023-07-13T05:55:10;4.00;;;1.52;;
33824;SDS011;20127;48.962;8.342;2023-07-13T05:58:11;1.58;;;1.02;;
33824;SDS011;20127;48.962;8.342;2023-07-13T06:01:14;3.40;;;1.67;;
33824;SDS011;20127;48.962;8.342;2023-07-13T06:04:16;6.63;;;1.38;;
33824;SDS011;20127;48.962;8.342;2023-07-13T06:07:18;6.07;;;1.70;;
33824;SDS011;20127;48.962;8.342;2023-07-13T06:10:21;4.93;;;1.20;;
33824;SDS011;20127;48.962;8.342;2023-07-13T06:13:22;3.03;;;1.35;;
33824;SDS011;20127;48.962;8.342;2023-07-13T06:16:24;5.05;;;1.85;;
33824;SDS011;20127;48.962;8.342;2023-07-13T06:19:26;4.57;;;2.30;;
33824;SDS011;20127;48.962;8.342;2023-07-13T06:22:28;5.60;;;1.75;;
33824;SDS011;20127;48.962;8.342;2023-07-13T06:25:31;5.43;;;2.15;;
33824;SDS011;20127;48.962;8.342;2023-07-13T06:28:33;5.40;;;1.05;;
33824;SDS011;20127;48.962;8.342;2023-07-13T06:31:36;7.68;;;1.73;;
33824;SDS011;20127;48.962;8.342;2023-07-13T06:34:37;3.13;;;1.70;;
33824;SDS011;20127;48.962;8.342;2023-07-13T06:37:40;4.30;;;1.67;;
33824;SDS011;20127;48.962;8.342;2023-07-13T06:40:43;6.05;;;1.88;;
33824;SDS011;20127;48.962;8.342;2023-07-13T06:43:45;2.65;;;1.30;;
33824;SDS011;20127;48.962;8.342;2023-07-13T06:46:46;2.85;;;1.58;;
33824;SDS011;20127;48.962;8.342;2023-07-13T06:49:48;6.35;;;2.20;;
33824;SDS011;20127;48.962;8.342;2023-07-13T06:52:50;3.15;;;1.98;;
33824;SDS011;20127;48.962;8.342;2023-07-13T06:55:54;4.30;;;1.83;;
33824;SDS011;20127;48.962;8.342;2023-07-13T06:58:55;7.05;;;1.95;;
33824;SDS011;20127;48.962;8.342;2023-07-13T07:01:57;6.78;;;1.95;;
33824;SDS011;20127;48.962;8.342;2023-07-13T07:04:59;5.82;;;2.58;;
33824;SDS011;20127;48.962;8.342;2023-07-13T07:08:01;3.05;;;2.03;;
33824;SDS011;20127;48.962;8.342;2023-07-13T07:11:04;7.30;;;2.38;;
33824;SDS011;20127;48.962;8.342;2023-07-13T07:14:07;5.43;;;2.45;;
33824;SDS011;20127;48.962;8.342;2023-07-13T07:17:09;5.45;;;2.20;;
33824;SDS011;20127;48.962;8.342;2023-07-13T07:20:11;5.60;;;2.05;;
33824;SDS011;20127;48.962;8.342;2023-07-13T07:23:13;4.82;;;2.05;;
33824;SDS011;20127;48.962;8.342;2023-07-13T07:26:16;5.15;;;2.03;;
33824;SDS011;20127;48.962;8.342;2023-07-13T07:29:18;7.72;;;1.90;;
33824;SDS011;20127;48.962;8.342;2023-07-13T07:32:19;7.95;;;1.95;;
33824;SDS011;20127;48.962;8.342;2023-07-13T07:35:21;10.02;;;3.33;;
33824;SDS011;20127;48.962;8.342;2023-07-13T07:38:23;6.78;;;2.25;;
33824;SDS011;20127;48.962;8.342;2023-07-13T07:41:26;5.13;;;1.70;;
33824;SDS011;20127;48.962;8.342;2023-07-13T07:44:28;3.97;;;1.63;;
33824;SDS011;20127;48.962;8.342;2023-07-13T07:47:29;3.95;;;1.73;;
33824;SDS011;20127;48.962;8.342;2023-07-13T07:50:31;3.58;;;1.27;;
33824;SDS011;20127;48.962;8.342;2023-07-13T07:53:33;3.30;;;1.55;;
33824;SDS011;20127;48.962;8.342;2023-07-13T07:56:36;3.70;;;1.50;;
33824;SDS011;20127;48.962;8.342;2023-07-13T07:59:37;5.30;;;2.10;;
33824;SDS011;20127;48.962;8.342;2023-07-13T08:02:40;5.70;;;2.25;;
33824;SDS011;20127;48.962;8.342;2023-07-13T08:05:42;2.50;;;1.00;;
33824;SDS011;20127;48.962;8.342;2023-07-13T08:08:44;4.57;;;1.48;;
33824;SDS011;20127;48.962;8.342;2023-07-13T08:11:47;6.50;;;2.25;;
33824;SDS011;20127;48.962;8.342;2023-07-13T08:14:49;4.30;;;1.75;;
33824;SDS011;20127;48.962;8.342;2023-07-13T08:17:53;7.30;;;1.65;;
33824;SDS011;20127;48.962;8.342;2023-07-13T08:20:55;4.20;;;1.40;;
33824;SDS011;20127;48.962;8.342;2023-07-13T08:23:57;3.38;;;1.50;;
33824;SDS011;20127;48.962;8.342;2023-07-13T08:27:00;3.88;;;1.70;;
33824;SDS011;20127;48.962;8.342;2023-07-13T08:30:02;4.95;;;1.13;;
33824;SDS011;20127;48.962;8.342;2023-07-13T08:33:05;3.47;;;1.15;;
33824;SDS011;20127;48.962;8.342;2023-07-13T08:36:07;3.00;;;1.15;;
33824;SDS011;20127;48.962;8.342;2023-07-13T08:39:09;3.60;;;1.33;;
33824;SDS011;20127;48.962;8.342;2023-07-13T08:42:13;4.40;;;0.90;;
33824;SDS011;20127;48.962;8.342;2023-07-13T08:45:22;3.33;;;1.10;;
33824;SDS011;20127;48.962;8.342;2023-07-13T08:48:31;4.35;;;1.92;;
33824;SDS011;20127;48.962;8.342;2023-07-13T08:51:38;5.90;;;1.40;;
33824;SDS011;20127;48.962;8.342;2023-07-13T08:54:45;3.85;;;1.23;;
33824;SDS011;20127;48.962;8.342;2023-07-13T08:57:54;3.58;;;1.50;;
33824;SDS011;20127;48.962;8.342;2023-07-13T09:01:02;4.15;;;1.50;;
33824;SDS011;20127;48.962;8.342;2023-07-13T09:04:14;3.75;;;1.38;;
33824;SDS011;20127;48.962;8.342;2023-07-13T09:07:21;2.50;;;1.88;;
33824;SDS011;20127;48.962;8.342;2023-07-13T09:10:36;2.35;;;1.10;;
33824;SDS011;20127;48.962;8.342;2023-07-13T09:13:47;2.83;;;1.00;;
33824;SDS011;20127;48.962;8.342;2023-07-13T09:16:54;3.67;;;1.23;;
33824;SDS011;20127;48.962;8.342;2023-07-13T09:19:58;2.13;;;0.95;;
33824;SDS011;20127;48.962;8.342;2023-07-13T09:23:04;4.47;;;0.90;;
33824;SDS011;20127;48.962;8.342;2023-07-13T09:26:13;2.75;;;1.45;;
33824;SDS011;20127;48.962;8.342;2023-07-13T09:29:20;2.45;;;1.23;;
33824;SDS011;20127;48.962;8.342;2023-07-13T09:32:27;1.45;;;1.20;;
33824;SDS011;20127;48.962;8.342;2023-07-13T09:35:30;3.78;;;1.00;;
33824;SDS011;20127;48.962;8.342;2023-07-13T09:38:32;1.17;;;0.68;;
33824;SDS011;20127;48.962;8.342;2023-07-13T09:41:37;5.10;;;1.50;;
33824;SDS011;20127;48.962;8.342;2023-07-13T09:44:52;3.72;;;1.38;;
33824;SDS011;20127;48.962;8.342;2023-07-13T09:47:58;4.80;;;2.03;;
33824;SDS011;20127;48.962;8.342;2023-07-13T09:51:03;1.77;;;0.93;;
33824;SDS011;20127;48.962;8.342;2023-07-13T09:54:17;1.88;;;0.70;;
33824;SDS011;20127;48.962;8.342;2023-07-13T09:57:22;6.47;;;1.20;;
33824;SDS011;20127;48.962;8.342;2023-07-13T10:00:27;4.22;;;1.77;;
33824;SDS011;20127;48.962;8.342;2023-07-13T10:03:31;6.13;;;1.45;;
33824;SDS011;20127;48.962;8.342;2023-07-13T10:06:38;4.90;;;1.30;;
33824;SDS011;20127;48.962;8.342;2023-07-13T10:09:40;4.78;;;1.35;;
33824;SDS011;20127;48.962;8.342;2023-07-13T10:12:42;2.95;;;1.08;;
33824;SDS011;20127;48.962;8.342;2023-07-13T10:15:46;3.65;;;0.90;;
33824;SDS011;20127;48.962;8.342;2023-07-13T10:18:50;2.38;;;0.95;;
33824;SDS011;20127;48.962;8.342;2023-07-13T10:21:56;3.13;;;1.08;;
33824;SDS011;20127;48.962;8.342;2023-07-13T10:25:00;7.93;;;1.50;;
33824;SDS011;20127;48.962;8.342;2023-07-13T10:28:03;2.78;;;1.13;;
33824;SDS011;20127;48.962;8.342;2023-07-13T10:31:14;1.55;;;0.90;;
33824;SDS011;20127;48.962;8.342;2023-07-13T10:34:17;7.05;;;1.50;;
33824;SDS011;20127;48.962;8.342;2023-07-13T10:37:20;3.38;;;2.03;;
33824;SDS011;20127;48.962;8.342;2023-07-13T10:40:27;2.70;;;1.60;;
33824;SDS011;20127;48.962;8.342;2023-07-13T10:43:34;1.27;;;0.90;;
33824;SDS011;20127;48.962;8.342;2023-07-13T10:46:40;5.07;;;1.50;;
33824;SDS011;20127;48.962;8.342;2023-07-13T10:49:44;2.20;;;1.10;;
33824;SDS011;20127;48.962;8.342;2023-07-13T10:52:49;2.05;;;1.40;;
33824;SDS011;20127;48.962;8.342;2023-07-13T10:55:55;3.78;;;1.23;;
33824;SDS011;20127;48.962;8.342;2023-07-13T10:59:09;4.05;;;0.88;;
33824;SDS011;20127;48.962;8.342;2023-07-13T11:02:17;5.38;;;1.75;;
33824;SDS011;20127;48.962;8.342;2023-07-13T11:05:26;2.75;;;0.98;;
33824;SDS011;20127;48.962;8.342;2023-07-13T11:08:35;1.65;;;1.33;;
33824;SDS011;20127;48.962;8.342;2023-07-13T11:11:38;2.63;;;0.80;;
33824;SDS011;20127;48.962;8.342;2023-07-13T11:14:44;8.55;;;1.45;;
33824;SDS011;20127;48.962;8.342;2023-07-13T11:18:11;4.20;;;1.48;;
33824;SDS011;20127;48.962;8.342;2023-07-13T11:21:22;1.95;;;1.17;;
33824;SDS011;20127;48.962;8.342;2023-07-13T11:24:28;1.40;;;0.85;;
33824;SDS011;20127;48.962;8.342;2023-07-13T11:27:36;2.55;;;1.25;;
33824;SDS011;20127;48.962;8.342;2023-07-13T11:30:40;4.63;;;2.08;;
33824;SDS011;20127;48.962;8.342;2023-07-13T11:33:51;1.90;;;0.90;;
33824;SDS011;20127;48.962;8.342;2023-07-13T11:36:54;3.38;;;1.30;;
33824;SDS011;20127;48.962;8.342;2023-07-13T11:39:58;3.75;;;1.40;;
33824;SDS011;20127;48.962;8.342;2023-07-13T11:43:00;1.92;;;0.95;;
33824;SDS011;20127;48.962;8.342;2023-07-13T11:46:12;2.13;;;0.82;;
33824;SDS011;20127;48.962;8.342;2023-07-13T11:49:17;2.60;;;1.15;;
33824;SDS011;20127;48.962;8.342;2023-07-13T11:52:21;3.33;;;1.80;;
33824;SDS011;20127;48.962;8.342;2023-07-13T11:58:29;5.65;;;1.27;;
33824;SDS011;20127;48.962;8.342;2023-07-13T12:01:31;2.63;;;1.20;;
33824;SDS011;20127;48.962;8.342;2023-07-13T12:04:35;2.97;;;1.10;;
33824;SDS011;20127;48.962;8.342;2023-07-13T12:07:38;5.68;;;1.30;;
33824;SDS011;20127;48.962;8.342;2023-07-13T12:10:40;1.83;;;1.15;;
33824;SDS011;20127;48.962;8.342;2023-07-13T12:13:43;4.45;;;1.10;;
33824;SDS011;20127;48.962;8.342;2023-07-13T12:16:46;2.97;;;1.30;;
33824;SDS011;20127;48.962;8.342;2023-07-13T12:19:50;9.05;;;1.52;;
33824;SDS011;20127;48.962;8.342;2023-07-13T12:22:53;4.88;;;1.25;;
33824;SDS011;20127;48.962;8.342;2023-07-13T12:25:55;2.55;;;1.10;;
33824;SDS011;20127;48.962;8.342;2023-07-13T12:28:58;3.92;;;1.45;;
33824;SDS011;20127;48.962;8.342;2023-07-13T12:32:02;5.57;;;1.55;;
33824;SDS011;20127;48.962;8.342;2023-07-13T12:35:14;3.78;;;1.40;;
33824;SDS011;20127;48.962;8.342;2023-07-13T12:38:18;7.45;;;1.77;;
33824;SDS011;20127;48.962;8.342;2023-07-13T12:41:21;4.70;;;1.25;;
33824;SDS011;20127;48.962;8.342;2023-07-13T12:44:24;7.85;;;1.70;;
33824;SDS011;20127;48.962;8.342;2023-07-13T12:47:29;4.22;;;1.02;;
33824;SDS011;20127;48.962;8.342;2023-07-13T12:50:37;2.15;;;1.23;;
33824;SDS011;20127;48.962;8.342;2023-07-13T12:53:43;2.55;;;1.45;;
33824;SDS011;20127;48.962;8.342;2023-07-13T12:59:52;1.27;;;0.88;;
33824;SDS011;20127;48.962;8.342;2023-07-13T13:02:56;4.63;;;1.10;;
33824;SDS011;20127;48.962;8.342;2023-07-13T13:06:00;3.42;;;1.23;;
33824;SDS011;20127;48.962;8.342;2023-07-13T13:09:05;2.75;;;1.02;;
33824;SDS011;20127;48.962;8.342;2023-07-13T13:12:13;1.70;;;1.00;;
33824;SDS011;20127;48.962;8.342;2023-07-13T13:15:15;1.92;;;0.80;;
33824;SDS011;20127;48.962;8.342;2023-07-13T13:18:17;3.53;;;1.00;;
33824;SDS011;20127;48.962;8.342;2023-07-13T13:21:23;3.17;;;0.90;;
33824;SDS011;20127;48.962;8.342;2023-07-13T13:24:26;2.80;;;0.82;;
33824;SDS011;20127;48.962;8.342;2023-07-13T13:27:29;2.38;;;1.15;;
33824;SDS011;20127;48.962;8.342;2023-07-13T13:30:31;2.80;;;1.20;;
33824;SDS011;20127;48.962;8.342;2023-07-13T13:33:32;4.43;;;1.17;;
33824;SDS011;20127;48.962;8.342;2023-07-13T13:36:35;3.05;;;0.82;;
33824;SDS011;20127;48.962;8.342;2023-07-13T13:39:37;3.97;;;0.90;;
33824;SDS011;20127;48.962;8.342;2023-07-13T13:42:39;2.42;;;1.30;;
33824;SDS011;20127;48.962;8.342;2023-07-13T13:45:41;3.70;;;1.05;;
33824;SDS011;20127;48.962;8.342;2023-07-13T13:48:43;9.27;;;1.48;;
33824;SDS011;20127;48.962;8.342;2023-07-13T13:51:47;6.28;;;1.10;;
33824;SDS011;20127;48.962;8.342;2023-07-13T13:54:49;2.67;;;1.08;;
33824;SDS011;20127;48.962;8.342;2023-07-13T13:57:50;2.22;;;0.82;;
33824;SDS011;20127;48.962;8.342;2023-07-13T14:00:52;1.10;;;0.93;;
33824;SDS011;20127;48.962;8.342;2023-07-13T14:03:54;2.65;;;0.88;;
33824;SDS011;20127;48.962;8.342;2023-07-13T14:06:57;2.42;;;1.05;;
33824;SDS011;20127;48.962;8.342;2023-07-13T14:09:59;5.50;;;1.20;;
33824;SDS011;20127;48.962;8.342;2023-07-13T14:13:01;3.95;;;0.95;;
33824;SDS011;20127;48.962;8.342;2023-07-13T14:16:08;2.58;;;1.17;;
33824;SDS011;20127;48.962;8.342;2023-07-13T14:22:16;3.38;;;1.35;;
33824;SDS011;20127;48.962;8.342;2023-07-13T14:25:19;1.92;;;1.00;;
33824;SDS011;20127;48.962;8.342;2023-07-13T14:28:23;2.40;;;1.17;;
33824;SDS011;20127;48.962;8.342;2023-07-13T14:31:27;4.38;;;1.40;;
33824;SDS011;20127;48.962;8.342;2023-07-13T14:34:29;4.43;;;1.30;;
33824;SDS011;20127;48.962;8.342;2023-07-13T14:37:32;1.90;;;0.95;;
33824;SDS011;20127;48.962;8.342;2023-07-13T14:40:34;2.22;;;1.60;;
33824;SDS011;20127;48.962;8.342;2023-07-13T14:43:36;3.50;;;0.85;;
33824;SDS011;20127;48.962;8.342;2023-07-13T14:46:38;2.08;;;1.10;;
33824;SDS011;20127;48.962;8.342;2023-07-13T14:49:40;3.75;;;1.27;;
33824;SDS011;20127;48.962;8.342;2023-07-13T14:52:46;2.97;;;1.40;;
33824;SDS011;20127;48.962;8.342;2023-07-13T14:55:48;4.10;;;1.00;;
33824;SDS011;20127;48.962;8.342;2023-07-13T14:58:50;4.57;;;0.90;;
33824;SDS011;20127;48.962;8.342;2023-07-13T15:01:53;3.47;;;1.27;;
33824;SDS011;20127;48.962;8.342;2023-07-13T15:04:55;6.50;;;1.73;;
33824;SDS011;20127;48.962;8.342;2023-07-13T15:07:59;1.85;;;1.00;;
33824;SDS011;20127;48.962;8.342;2023-07-13T15:11:02;3.10;;;1.27;;
33824;SDS011;20127;48.962;8.342;2023-07-13T15:14:05;5.32;;;1.73;;
33824;SDS011;20127;48.962;8.342;2023-07-13T15:17:10;3.60;;;1.10;;
33824;SDS011;20127;48.962;8.342;2023-07-13T15:20:27;4.20;;;0.95;;
33824;SDS011;20127;48.962;8.342;2023-07-13T15:23:32;4.75;;;1.60;;
33824;SDS011;20127;48.962;8.342;2023-07-13T15:26:34;2.20;;;0.88;;
33824;SDS011;20127;48.962;8.342;2023-07-13T15:29:36;3.58;;;1.42;;
33824;SDS011;20127;48.962;8.342;2023-07-13T15:32:38;3.80;;;0.90;;
33824;SDS011;20127;48.962;8.342;2023-07-13T15:35:40;2.72;;;1.33;;
33824;SDS011;20127;48.962;8.342;2023-07-13T15:38:44;2.33;;;1.15;;
33824;SDS011;20127;48.962;8.342;2023-07-13T15:41:48;4.78;;;0.88;;
33824;SDS011;20127;48.962;8.342;2023-07-13T15:44:50;3.33;;;1.33;;
33824;SDS011;20127;48.962;8.342;2023-07-13T15:47:52;3.40;;;1.00;;
33824;SDS011;20127;48.962;8.342;2023-07-13T15:50:54;2.85;;;1.00;;
33824;SDS011;20127;48.962;8.342;2023-07-13T15:54:02;4.75;;;1.73;;
33824;SDS011;20127;48.962;8.342;2023-07-13T15:57:08;2.55;;;1.40;;
33824;SDS011;20127;48.962;8.342;2023-07-13T16:00:14;11.48;;;3.72;;
33824;SDS011;20127;48.962;8.342;2023-07-13T16:06:22;4.63;;;1.45;;
33824;SDS011;20127;48.962;8.342;2023-07-13T16:09:27;6.30;;;2.30;;
33824;SDS011;20127;48.962;8.342;2023-07-13T16:12:29;3.38;;;1.38;;
33824;SDS011;20127;48.962;8.342;2023-07-13T16:15:31;3.92;;;1.20;;
33824;SDS011;20127;48.962;8.342;2023-07-13T16:18:32;3.42;;;0.85;;
33824;SDS011;20127;48.962;8.342;2023-07-13T16:21:35;3.97;;;1.65;;
33824;SDS011;20127;48.962;8.342;2023-07-13T16:24:42;4.97;;;1.48;;
33824;SDS011;20127;48.962;8.342;2023-07-13T16:27:46;3.15;;;1.55;;
33824;SDS011;20127;48.962;8.342;2023-07-13T16:30:48;4.57;;;1.90;;
33824;SDS011;20127;48.962;8.342;2023-07-13T16:33:50;3.90;;;2.25;;
33824;SDS011;20127;48.962;8.342;2023-07-13T16:36:54;6.22;;;1.38;;
33824;SDS011;20127;48.962;8.342;2023-07-13T16:39:58;2.80;;;1.35;;
33824;SDS011;20127;48.962;8.342;2023-07-13T16:43:00;1.63;;;1.30;;
33824;SDS011;20127;48.962;8.342;2023-07-13T16:46:04;7.90;;;2.25;;
33824;SDS011;20127;48.962;8.342;2023-07-13T16:49:08;3.38;;;2.20;;
33824;SDS011;20127;48.962;8.342;2023-07-13T16:52:21;4.03;;;2.45;;
33824;SDS011;20127;48.962;8.342;2023-07-13T16:55:24;7.95;;;2.55;;
33824;SDS011;20127;48.962;8.342;2023-07-13T16:58:29;2.15;;;1.00;;
33824;SDS011;20127;48.962;8.342;2023-07-13T17:01:33;3.67;;;1.52;;
33824;SDS011;20127;48.962;8.342;2023-07-13T17:04:36;4.05;;;1.67;;
33824;SDS011;20127;48.962;8.342;2023-07-13T17:07:37;4.57;;;1.35;;
33824;SDS011;20127;48.962;8.342;2023-07-13T17:10:41;9.10;;;2.10;;
33824;SDS011;20127;48.962;8.342;2023-07-13T17:13:44;5.30;;;2.50;;
33824;SDS011;20127;48.962;8.342;2023-07-13T17:16:46;2.17;;;1.35;;
33824;SDS011;20127;48.962;8.342;2023-07-13T17:19:49;2.70;;;1.58;;
33824;SDS011;20127;48.962;8.342;2023-07-13T17:22:53;5.25;;;2.17;;
33824;SDS011;20127;48.962;8.342;2023-07-13T17:25:56;6.28;;;2.35;;
33824;SDS011;20127;48.962;8.342;2023-07-13T17:28:58;5.60;;;2.20;;
33824;SDS011;20127;48.962;8.342;2023-07-13T17:32:01;5.57;;;1.25;;
33824;SDS011;20127;48.962;8.342;2023-07-13T17:35:12;2.83;;;1.00;;
33824;SDS011;20127;48.962;8.342;2023-07-13T17:38:18;4.90;;;1.42;;
33824;SDS011;20127;48.962;8.342;2023-07-13T17:41:21;4.30;;;1.45;;
33824;SDS011;20127;48.962;8.342;2023-07-13T17:44:24;5.72;;;1.52;;
33824;SDS011;20127;48.962;8.342;2023-07-13T17:47:25;4.38;;;1.63;;
33824;SDS011;20127;48.962;8.342;2023-07-13T17:50:29;3.03;;;1.00;;
33824;SDS011;20127;48.962;8.342;2023-07-13T17:53:35;7.00;;;1.25;;
33824;SDS011;20127;48.962;8.342;2023-07-13T17:56:39;1.35;;;0.77;;
33824;SDS011;20127;48.962;8.342;2023-07-13T17:59:41;4.05;;;1.10;;
33824;SDS011;20127;48.962;8.342;2023-07-13T18:02:42;5.10;;;1.17;;
33824;SDS011;20127;48.962;8.342;2023-07-13T18:05:45;6.90;;;1.40;;
33824;SDS011;20127;48.962;8.342;2023-07-13T18:08:49;5.40;;;1.55;;
33824;SDS011;20127;48.962;8.342;2023-07-13T18:11:53;3.78;;;1.33;;
33824;SDS011;20127;48.962;8.342;2023-07-13T18:14:58;3.20;;;1.48;;
33824;SDS011;20127;48.962;8.342;2023-07-13T18:17:59;2.55;;;1.30;;
33824;SDS011;20127;48.962;8.342;2023-07-13T18:21:03;5.05;;;1.90;;
33824;SDS011;20127;48.962;8.342;2023-07-13T18:24:07;4.50;;;1.35;;
33824;SDS011;20127;48.962;8.342;2023-07-13T18:27:13;7.13;;;1.77;;
33824;SDS011;20127;48.962;8.342;2023-07-13T18:30:18;3.75;;;1.75;;
33824;SDS011;20127;48.962;8.342;2023-07-13T18:33:21;6.28;;;1.27;;
33824;SDS011;20127;48.962;8.342;2023-07-13T18:36:24;3.42;;;1.63;;
33824;SDS011;20127;48.962;8.342;2023-07-13T18:39:26;4.38;;;2.40;;